logo
App data

Wander No More

Wander No More is a Kinetic Novel (a visual novel without any choices) which centers around the life of Kouichirou Nabatame, a renowned samurai, and Chiyo, a young village girl. Wander No More tells the story of how these two met, became a family, and attempted to restore their lives to what they once were.
Store | Hub | SteamDB | Site
Developer: Zetsubou Publisher: Unwonted Studios
Genre: Free to Play, Indie, Simulation
Languages: English
Tags: Free to Play (79), Visual Novel (43), Indie (41), Anime (38), Simulation (36), Casual (12)
Category: Single-player, Full controller support
Release date: Feb 18, 2017
Free
Old userscore: 88% Owners: 0 .. 20,000
Followers: 3,535
Peak concurrent players yesterday: 1

Steam Spy is still in beta, so expect major bugs.

Owners data:

Access restricted.

This feature is only available to users with special access rights. Sorry.

If you want to proceed, you need to register or log in first and then back Steam Spy on Patreon. Look for Indie or Pro pledge.

Don't forget to use the same email as on Steam Spy!

If you've recently backed Steam Spy on Patreon, please note, that it might take around 15 minutes for your access rights to sync. In most cases you'll need to re-login on Steam Spy too.

Audience in 2 weeks:

Access restricted.

This feature is only available to users with special access rights. Sorry.

If you want to proceed, you need to register or log in first and then back Steam Spy on Patreon. Look for Indie or Pro pledge.

Don't forget to use the same email as on Steam Spy!

If you've recently backed Steam Spy on Patreon, please note, that it might take around 15 minutes for your access rights to sync. In most cases you'll need to re-login on Steam Spy too.

Peak daily concurrent players:

CCU data courtesy of SteamDB. Used with permission.

Hourly concurrent players:

Daily Twitch stats:

Hourly Twitch stats:

Followers over time

Access restricted.

This feature is only available to users with special access rights. Sorry.

If you want to proceed, you need to register or log in first and then back Steam Spy on Patreon. Look for Indie or Pro pledge.

Don't forget to use the same email as on Steam Spy!

If you've recently backed Steam Spy on Patreon, please note, that it might take around 15 minutes for your access rights to sync. In most cases you'll need to re-login on Steam Spy too.

Views for top 50 videos on YouTube for this game:

Games similar to this one:

# Game Release date
Price
Score rank
(Userscore / Metascore)
Owners
Players
Playtime (Median)
1 Max Gentlemen Aug 21, 2014 FreeN/A (N/A)100,000 .. 200,0000%00:00 (00:00)
2 Data Hacker: Initiation Jul 21, 2014 $2.99N/A (N/A)1,000,000 .. 2,000,0000%00:00 (00:00)
3 Two Brothers Dec 3, 2013 N/AN/A (N/A/57%)50,000 .. 100,0000%00:00 (00:00)
4 Darklands Jan 1, 1992 $6.99N/A (N/A)20,000 .. 50,0000%00:00 (00:00)
5 Windforge Mar 11, 2014 $9.99N/A (N/A/53%)20,000 .. 50,0000%00:00 (00:00)
6 Battlegrounds of Eldhelm Oct 22, 2014 N/AN/A (N/A)50,000 .. 100,0000%00:00 (00:00)
7 Anarchy Arcade Sep 3, 2014 FreeN/A (N/A)500,000 .. 1,000,0000%00:00 (00:00)
8 Vulture for NetHack Feb 1, 2005 $2.99N/A (N/A)0 .. 20,0000%00:00 (00:00)
9 The Memory of Eldurim Feb 7, 2014 $0.99N/A (N/A)20,000 .. 50,0000%00:00 (00:00)
10 Among Ripples Jan 22, 2015 N/AN/A (N/A)200,000 .. 500,0000%00:00 (00:00)
11 Soulbringer Jun 30, 2000 $2.99N/A (N/A/70%)50,000 .. 100,0000%00:00 (00:00)
12 Gorky 17 Dec 31, 1999 $4.99N/A (N/A)200,000 .. 500,0000.88%05:33 (01:51)
13 ACE - Arena: Cyber Evolution Aug 18, 2014 N/AN/A (N/A)200,000 .. 500,0000%00:00 (00:00)
14 KnightShift Dec 31, 2003 $6.99N/A (N/A)200,000 .. 500,0000.76%05:02 (01:40)
15 Floating Point Jun 6, 2014 N/AN/A (N/A)500,000 .. 1,000,0003.13%00:01 (00:00)
16 Dofus Nov 15, 2016 N/AN/A (N/A/72%)100,000 .. 200,0000%00:00 (00:00)
17 Trapped Dead: Lockdown Mar 20, 2015 $9.99N/A (N/A)50,000 .. 100,0000%00:00 (00:00)
18 Cloney Mar 15, 2014 FreeN/A (N/A)100,000 .. 200,0000%00:00 (00:00)
19 how do you Do It? Jan 26, 2014 FreeN/A (N/A)200,000 .. 500,0000%00:00 (00:00)
20 Lords of Magic: Special Edition Nov 19, 1997 $4.99N/A (N/A)0 .. 20,0000%00:00 (00:00)
21 Force of Elements Dec 29, 2015 FreeN/A (N/A)20,000 .. 50,0000%00:00 (00:00)
22 Legend of Dungeon: Masters Nov 30, 2015 N/AN/A (N/A)100,000 .. 200,0000%00:00 (00:00)
23 Bitweb Jun 3, 2015 FreeN/A (N/A)50,000 .. 100,0000%00:00 (00:00)
24 Asdivine Hearts Feb 1, 2016 $9.99N/A (N/A)0 .. 20,0000%00:00 (00:00)
25 Badland Bandits Jul 16, 2015 FreeN/A (N/A)20,000 .. 50,0000%00:00 (00:00)
26 Metaverse Construction Kit Dec 6, 2015 FreeN/A (N/A)100,000 .. 200,0000%00:00 (00:00)
27 Lamia Must Die Feb 17, 2014 FreeN/A (N/A)20,000 .. 50,0000%00:00 (00:00)
28 Firefly Online Cortex Jan 29, 2015 FreeN/A (N/A)100,000 .. 200,0000%00:00 (00:00)
29 9Dragons Feb 14, 2017 FreeN/A (N/A)50,000 .. 100,0000%00:00 (00:00)
30 Without Within Jan 22, 2015 FreeN/A (N/A)200,000 .. 500,0000%00:00 (00:00)
31 RoShamBo Jul 14, 2016 FreeN/A (N/A)100,000 .. 200,0000%00:00 (00:00)
32 Damned Nation Reborn Feb 12, 2015 $12.99N/A (N/A)0 .. 20,0000%00:00 (00:00)
33 Atom Universe Dec 25, 2017 FreeN/A (N/A)100,000 .. 200,0000%00:00 (00:00)
34 Red Stone Online Apr 2015 N/AN/A (N/A)100,000 .. 200,0000%00:00 (00:00)
35 The Panic Room Apr 27, 2016 FreeN/A (N/A)100,000 .. 200,0000%00:00 (00:00)
36 Skyreach Apr 29, 2016 FreeN/A (N/A)50,000 .. 100,0000%00:00 (00:00)
37 SOLRAVEN Mar 1, 2016 FreeN/A (N/A)50,000 .. 100,0000%00:00 (00:00)
38 One Thousand Lies Mar 28, 2016 FreeN/A (N/A)50,000 .. 100,0000%00:00 (00:00)
39 Fantasy Tales Online May 5, 2016 FreeN/A (N/A)100,000 .. 200,0000%00:00 (00:00)
40 Vintage VR May 2, 2016 FreeN/A (N/A)50,000 .. 100,0000%00:00 (00:00)
41 The Average Everyday Adventures of Samantha Browne Apr 18, 2016 FreeN/A (N/A)50,000 .. 100,0000%00:00 (00:00)
42 Piñata Sep 1, 2016 FreeN/A (N/A)0 .. 20,0000%00:00 (00:00)
43 Lost girl`s [diary] Mar 25, 2016 FreeN/A (N/A)50,000 .. 100,0000%00:00 (00:00)
44 Campaign Clicker Oct 5, 2016 FreeN/A (N/A)50,000 .. 100,0000%00:00 (00:00)
45 The Bottom of the Well Jan 25, 2016 FreeN/A (N/A)50,000 .. 100,0000%00:00 (00:00)
46 Carpe Diem Nov 30, 2015 FreeN/A (N/A)200,000 .. 500,0000%00:00 (00:00)
47 Rock Paper Scissors Champion Feb 27, 2016 FreeN/A (N/A)50,000 .. 100,0000%00:00 (00:00)
48 Gods and Idols Dec 12, 2016 FreeN/A (N/A)100,000 .. 200,0000%00:00 (00:00)
49 Atulos Online Apr 30, 2016 FreeN/A (N/A)20,000 .. 50,0000%00:00 (00:00)
50 Mathoria: It All Adds Up Dec 27, 2014 FreeN/A (N/A)20,000 .. 50,0000%00:00 (00:00)
51 SurrealVR Apr 15, 2016 FreeN/A (N/A)50,000 .. 100,0000%00:00 (00:00)
52 Emerland Solitaire: Endless Journey Jul 17, 2016 FreeN/A (N/A)20,000 .. 50,0000%00:00 (00:00)
53 UNCORPOREAL - "Alcatraz Island Lofts" Jul 20, 2016 FreeN/A (N/A)20,000 .. 50,0000%00:00 (00:00)
54 The VR Museum of Fine Art Aug 20, 2016 FreeN/A (N/A)50,000 .. 100,0000%00:00 (00:00)
55 You Have 10 Seconds 2 Aug 25, 2016 FreeN/A (N/A)100,000 .. 200,0000%00:00 (00:00)
56 Racecar.io Oct 18, 2016 FreeN/A (N/A)50,000 .. 100,0000%00:00 (00:00)
57 Counter Agents Dec 1, 2016 FreeN/A (N/A)20,000 .. 50,0000%00:00 (00:00)
58 Jonah's Path Jul 7, 2016 FreeN/A (N/A)50,000 .. 100,0000%00:00 (00:00)
59 Dimensional Rift Feb 8, 2017 FreeN/A (N/A)0 .. 20,0000%00:00 (00:00)
60 Quanero VR Aug 12, 2016 FreeN/A (N/A)50,000 .. 100,0000%00:00 (00:00)
61 Kio's Adventure Apr 5, 2017 $1.99N/A (N/A)200,000 .. 500,0000%00:00 (00:00)
62 UNCORPOREAL - "Fluffy!" Jul 20, 2016 FreeN/A (N/A)20,000 .. 50,00033.33%00:01 (00:00)
63 Soundscape VR May 16, 2017 FreeN/A (N/A)20,000 .. 50,0000%00:00 (00:00)
64 ArcaniA: Fall of Setarrif Oct 24, 2011 $14.99N/A (N/A)100,000 .. 200,0000%00:00 (00:00)
65 Anachronox Jun 27, 2001 $6.99N/A (N/A/77%)200,000 .. 500,0000%00:00 (00:00)
66 Breath of Death VII Jul 13, 2011 $2.99N/A (N/A)500,000 .. 1,000,0000%00:00 (00:00)
67 Omikron: The Nomad Soul Nov 2, 1999 $9.99N/A (N/A)200,000 .. 500,0000%00:00 (00:00)
68 Geneforge 2 Jul 1, 2003 $19.99N/A (N/A)50,000 .. 100,0000%00:00 (00:00)
69 Wizardry 6: Bane of the Cosmic Forge Sep 10, 2013 $4.99N/A (N/A)50,000 .. 100,0000%00:00 (00:00)
70 Geneforge 3 Apr 1, 2005 $19.99N/A (N/A)50,000 .. 100,0000%00:00 (00:00)
71 Wizardry 7: Crusaders of the Dark Savant Sep 10, 2013 $4.99N/A (N/A)50,000 .. 100,0000%00:00 (00:00)
72 Geneforge 5: Overthrow Nov 1, 2008 $19.99N/A (N/A)50,000 .. 100,0000%00:00 (00:00)
73 Iesabel Jul 7, 2013 $4.99N/A (N/A)200,000 .. 500,0000%00:00 (00:00)
74 R.A.W. Realms of Ancient War Oct 11, 2012 $9.99N/A (N/A)200,000 .. 500,0000%00:00 (00:00)
75 Freedom Force Mar 26, 2002 $4.99N/A (N/A/90%)200,000 .. 500,0000%00:00 (00:00)
76 ROSE Online Oct 23, 2012 N/AN/A (N/A)200,000 .. 500,0000%00:00 (00:00)
77 Freedom Force vs. the Third Reich Mar 8, 2005 $4.99N/A (N/A)200,000 .. 500,0000%00:00 (00:00)
78 Nethergate: Resurrection Mar 1, 2008 $4.99N/A (N/A)20,000 .. 50,0000%00:00 (00:00)
79 Star Wolves Mar 2, 2010 $3.99N/A (N/A)50,000 .. 100,0000%00:00 (00:00)
80 Realms of Arkania: Blade of Destiny Jul 29, 2013 $14.99N/A (N/A)100,000 .. 200,0000%00:00 (00:00)

Tags over time:

Access restricted.

This feature is only available to users with special access rights. Sorry.

If you want to proceed, you need to register or log in first and then back Steam Spy on Patreon. Look for Indie or Pro pledge.

Don't forget to use the same email as on Steam Spy!

If you've recently backed Steam Spy on Patreon, please note, that it might take around 15 minutes for your access rights to sync. In most cases you'll need to re-login on Steam Spy too.

Owners of this game also own:

Access restricted.

This feature is only available to users with special access rights. Sorry.

If you want to proceed, you need to register or log in first and then back Steam Spy on Patreon. Look for Indie or Pro pledge.

Don't forget to use the same email as on Steam Spy!

If you've recently backed Steam Spy on Patreon, please note, that it might take around 15 minutes for your access rights to sync. In most cases you'll need to re-login on Steam Spy too.

Playtime distribution:

Access restricted.

This feature is only available to users with special access rights. Sorry.

If you want to proceed, you need to register or log in first and then back Steam Spy on Patreon. Look for Indie or Pro pledge.

Don't forget to use the same email as on Steam Spy!

If you've recently backed Steam Spy on Patreon, please note, that it might take around 15 minutes for your access rights to sync. In most cases you'll need to re-login on Steam Spy too.

Playtime (2 weeks):

Access restricted.

This feature is only available to users with special access rights. Sorry.

If you want to proceed, you need to register or log in first and then back Steam Spy on Patreon. Look for Indie or Pro pledge.

Don't forget to use the same email as on Steam Spy!

If you've recently backed Steam Spy on Patreon, please note, that it might take around 15 minutes for your access rights to sync. In most cases you'll need to re-login on Steam Spy too.

User reviews:

Login required.

Please register or log in to see this information.